sensor_id;sensor_type;location;lat;lon;timestamp;pressure;altitude;pressure_sealevel;temperature;humidity
44103;BME280;29769;42.178;24.742;2022-11-23T00:02:17;98451.66;;;10.86;100.00
44103;BME280;29769;42.178;24.742;2022-11-23T00:05:02;98464.72;;;10.89;100.00
44103;BME280;29769;42.178;24.742;2022-11-23T00:07:47;98469.81;;;10.93;100.00
44103;BME280;29769;42.178;24.742;2022-11-23T00:10:31;98473.19;;;10.97;100.00
44103;BME280;29769;42.178;24.742;2022-11-23T00:13:16;98461.59;;;10.78;100.00
44103;BME280;29769;42.178;24.742;2022-11-23T00:16:25;98465.31;;;10.47;100.00
44103;BME280;29769;42.178;24.742;2022-11-23T00:19:10;98464.31;;;10.25;100.00
44103;BME280;29769;42.178;24.742;2022-11-23T00:21:55;98461.00;;;10.18;100.00
44103;BME280;29769;42.178;24.742;2022-11-23T00:24:40;98450.59;;;9.89;100.00
44103;BME280;29769;42.178;24.742;2022-11-23T00:27:25;98457.66;;;9.59;100.00
44103;BME280;29769;42.178;24.742;2022-11-23T00:30:11;98458.13;;;9.44;100.00
44103;BME280;29769;42.178;24.742;2022-11-23T00:32:55;98448.47;;;9.17;100.00
44103;BME280;29769;42.178;24.742;2022-11-23T00:35:40;98442.13;;;9.24;100.00
44103;BME280;29769;42.178;24.742;2022-11-23T00:38:25;98407.59;;;9.37;100.00
44103;BME280;29769;42.178;24.742;2022-11-23T00:41:13;98404.72;;;9.45;100.00
44103;BME280;29769;42.178;24.742;2022-11-23T00:43:58;98445.31;;;9.33;100.00
44103;BME280;29769;42.178;24.742;2022-11-23T00:46:43;98438.03;;;9.14;100.00
44103;BME280;29769;42.178;24.742;2022-11-23T00:49:28;98433.06;;;9.05;100.00
44103;BME280;29769;42.178;24.742;2022-11-23T00:52:13;98434.16;;;8.98;100.00
44103;BME280;29769;42.178;24.742;2022-11-23T00:54:57;98430.84;;;8.91;100.00
44103;BME280;29769;42.178;24.742;2022-11-23T00:57:42;98434.41;;;8.88;100.00
44103;BME280;29769;42.178;24.742;2022-11-23T01:00:27;98429.00;;;8.95;100.00
44103;BME280;29769;42.178;24.742;2022-11-23T01:03:15;98410.50;;;8.99;100.00
44103;BME280;29769;42.178;24.742;2022-11-23T01:06:05;98409.88;;;9.20;100.00
44103;BME280;29769;42.178;24.742;2022-11-23T01:09:03;98397.13;;;9.36;100.00
44103;BME280;29769;42.178;24.742;2022-11-23T01:11:48;98396.16;;;9.40;100.00
44103;BME280;29769;42.178;24.742;2022-11-23T01:14:33;98376.66;;;9.47;100.00
44103;BME280;29769;42.178;24.742;2022-11-23T01:17:22;98356.94;;;9.62;100.00
44103;BME280;29769;42.178;24.742;2022-11-23T01:20:07;98357.94;;;9.84;100.00
44103;BME280;29769;42.178;24.742;2022-11-23T01:22:52;98359.09;;;10.02;100.00
44103;BME280;29769;42.178;24.742;2022-11-23T01:25:37;98374.44;;;10.14;100.00
44103;BME280;29769;42.178;24.742;2022-11-23T01:28:23;98364.78;;;10.14;100.00
44103;BME280;29769;42.178;24.742;2022-11-23T01:31:22;98316.44;;;10.20;100.00
44103;BME280;29769;42.178;24.742;2022-11-23T01:34:11;98284.00;;;10.21;100.00
44103;BME280;29769;42.178;24.742;2022-11-23T01:36:55;98284.00;;;10.21;100.00
44103;BME280;29769;42.178;24.742;2022-11-23T01:39:40;98336.94;;;10.35;100.00
44103;BME280;29769;42.178;24.742;2022-11-23T01:45:42;98384.25;;;9.28;100.00
44103;BME280;29769;42.178;24.742;2022-11-23T01:48:37;98357.53;;;9.16;100.00
44103;BME280;29769;42.178;24.742;2022-11-23T01:51:28;98349.81;;;9.39;100.00
44103;BME280;29769;42.178;24.742;2022-11-23T01:54:23;98333.06;;;9.43;100.00
44103;BME280;29769;42.178;24.742;2022-11-23T01:57:27;98318.63;;;9.56;100.00
44103;BME280;29769;42.178;24.742;2022-11-23T02:00:14;98320.91;;;9.67;100.00
44103;BME280;29769;42.178;24.742;2022-11-23T02:02:59;98333.50;;;9.82;100.00
44103;BME280;29769;42.178;24.742;2022-11-23T02:05:49;98344.38;;;9.96;100.00
44103;BME280;29769;42.178;24.742;2022-11-23T02:08:37;98350.84;;;10.12;100.00
44103;BME280;29769;42.178;24.742;2022-11-23T02:11:22;98325.47;;;10.11;100.00
44103;BME280;29769;42.178;24.742;2022-11-23T02:14:07;98350.16;;;10.32;100.00
44103;BME280;29769;42.178;24.742;2022-11-23T02:16:52;98342.94;;;10.39;100.00
44103;BME280;29769;42.178;24.742;2022-11-23T02:25:47;98356.84;;;10.17;100.00
44103;BME280;29769;42.178;24.742;2022-11-23T02:28:39;98362.25;;;10.11;100.00
44103;BME280;29769;42.178;24.742;2022-11-23T02:31:26;98353.94;;;9.99;100.00
44103;BME280;29769;42.178;24.742;2022-11-23T02:34:12;98358.41;;;9.70;100.00
44103;BME280;29769;42.178;24.742;2022-11-23T02:36:57;98326.34;;;9.61;100.00
44103;BME280;29769;42.178;24.742;2022-11-23T02:39:48;98318.00;;;9.74;100.00
44103;BME280;29769;42.178;24.742;2022-11-23T02:42:35;98314.81;;;9.65;100.00
44103;BME280;29769;42.178;24.742;2022-11-23T02:45:30;98333.81;;;9.19;100.00
44103;BME280;29769;42.178;24.742;2022-11-23T02:48:19;98351.50;;;8.84;100.00
44103;BME280;29769;42.178;24.742;2022-11-23T02:51:03;98343.59;;;8.57;100.00
44103;BME280;29769;42.178;24.742;2022-11-23T02:53:50;98334.50;;;8.37;100.00
44103;BME280;29769;42.178;24.742;2022-11-23T02:56:35;98319.56;;;8.41;100.00
44103;BME280;29769;42.178;24.742;2022-11-23T02:59:21;98329.31;;;8.36;100.00
44103;BME280;29769;42.178;24.742;2022-11-23T03:02:08;98329.91;;;8.45;100.00
44103;BME280;29769;42.178;24.742;2022-11-23T03:04:53;98340.09;;;8.56;100.00
44103;BME280;29769;42.178;24.742;2022-11-23T03:07:38;98351.81;;;8.44;100.00
44103;BME280;29769;42.178;24.742;2022-11-23T03:10:23;98346.72;;;8.38;100.00
44103;BME280;29769;42.178;24.742;2022-11-23T03:13:11;98348.78;;;8.26;100.00
44103;BME280;29769;42.178;24.742;2022-11-23T03:15:57;98341.00;;;8.23;100.00
44103;BME280;29769;42.178;24.742;2022-11-23T03:18:44;98324.47;;;8.21;100.00
44103;BME280;29769;42.178;24.742;2022-11-23T03:21:29;98311.19;;;8.27;100.00
44103;BME280;29769;42.178;24.742;2022-11-23T03:24:14;98319.81;;;8.32;100.00
44103;BME280;29769;42.178;24.742;2022-11-23T03:27:01;98307.56;;;8.32;100.00
44103;BME280;29769;42.178;24.742;2022-11-23T03:29:46;98282.09;;;8.37;100.00
44103;BME280;29769;42.178;24.742;2022-11-23T03:32:35;98306.78;;;8.60;100.00
44103;BME280;29769;42.178;24.742;2022-11-23T03:35:20;98303.84;;;8.70;100.00
44103;BME280;29769;42.178;24.742;2022-11-23T03:38:25;98303.28;;;8.61;100.00
44103;BME280;29769;42.178;24.742;2022-11-23T03:41:11;98295.63;;;8.53;100.00
44103;BME280;29769;42.178;24.742;2022-11-23T03:44:06;98313.91;;;8.55;100.00
44103;BME280;29769;42.178;24.742;2022-11-23T03:46:51;98313.75;;;8.61;100.00
44103;BME280;29769;42.178;24.742;2022-11-23T03:49:36;98326.16;;;8.54;100.00
44103;BME280;29769;42.178;24.742;2022-11-23T03:52:21;98336.78;;;8.49;100.00
44103;BME280;29769;42.178;24.742;2022-11-23T03:55:07;98334.28;;;8.45;100.00
44103;BME280;29769;42.178;24.742;2022-11-23T03:57:52;98331.72;;;8.43;100.00
44103;BME280;29769;42.178;24.742;2022-11-23T04:00:39;98329.88;;;8.47;100.00
44103;BME280;29769;42.178;24.742;2022-11-23T04:03:24;98325.53;;;8.46;100.00
44103;BME280;29769;42.178;24.742;2022-11-23T04:06:25;98333.25;;;8.51;100.00
44103;BME280;29769;42.178;24.742;2022-11-23T04:09:22;98344.63;;;8.49;100.00
44103;BME280;29769;42.178;24.742;2022-11-23T04:12:21;98332.72;;;8.39;100.00
44103;BME280;29769;42.178;24.742;2022-11-23T04:15:07;98339.41;;;8.49;100.00
44103;BME280;29769;42.178;24.742;2022-11-23T04:17:53;98341.00;;;8.55;100.00
44103;BME280;29769;42.178;24.742;2022-11-23T04:20:39;98324.34;;;8.58;100.00
44103;BME280;29769;42.178;24.742;2022-11-23T04:23:23;98320.88;;;8.56;100.00
44103;BME280;29769;42.178;24.742;2022-11-23T04:26:08;98319.00;;;8.61;100.00
44103;BME280;29769;42.178;24.742;2022-11-23T04:28:57;98307.66;;;8.60;100.00
44103;BME280;29769;42.178;24.742;2022-11-23T04:31:42;98294.44;;;8.63;100.00
44103;BME280;29769;42.178;24.742;2022-11-23T04:34:30;98311.00;;;8.65;100.00
44103;BME280;29769;42.178;24.742;2022-11-23T04:37:18;98324.94;;;8.67;100.00
44103;BME280;29769;42.178;24.742;2022-11-23T04:40:03;98326.75;;;8.64;100.00
44103;BME280;29769;42.178;24.742;2022-11-23T04:43:09;98310.16;;;8.63;100.00
44103;BME280;29769;42.178;24.742;2022-11-23T04:45:56;98314.34;;;8.70;100.00
44103;BME280;29769;42.178;24.742;2022-11-23T04:48:46;98322.97;;;8.74;100.00
44103;BME280;29769;42.178;24.742;2022-11-23T04:51:33;98322.03;;;8.76;100.00
44103;BME280;29769;42.178;24.742;2022-11-23T04:54:18;98343.03;;;8.75;100.00
44103;BME280;29769;42.178;24.742;2022-11-23T04:57:10;98347.31;;;8.77;100.00
44103;BME280;29769;42.178;24.742;2022-11-23T04:59:56;98350.75;;;8.81;100.00
44103;BME280;29769;42.178;24.742;2022-11-23T05:02:42;98345.53;;;8.79;100.00
44103;BME280;29769;42.178;24.742;2022-11-23T05:05:38;98326.19;;;8.83;100.00
44103;BME280;29769;42.178;24.742;2022-11-23T05:08:23;98323.84;;;8.74;100.00
44103;BME280;29769;42.178;24.742;2022-11-23T05:11:16;98338.28;;;8.87;100.00
44103;BME280;29769;42.178;24.742;2022-11-23T05:14:01;98337.50;;;8.85;100.00
44103;BME280;29769;42.178;24.742;2022-11-23T05:16:47;98332.13;;;8.90;100.00
44103;BME280;29769;42.178;24.742;2022-11-23T05:19:33;98321.75;;;8.85;100.00
44103;BME280;29769;42.178;24.742;2022-11-23T05:22:18;98323.56;;;8.83;100.00
44103;BME280;29769;42.178;24.742;2022-11-23T05:25:04;98317.59;;;8.78;100.00
44103;BME280;29769;42.178;24.742;2022-11-23T05:27:51;98308.00;;;8.77;100.00
44103;BME280;29769;42.178;24.742;2022-11-23T05:30:36;98322.06;;;8.75;100.00
44103;BME280;29769;42.178;24.742;2022-11-23T05:33:21;98322.88;;;8.77;100.00
44103;BME280;29769;42.178;24.742;2022-11-23T05:36:06;98331.59;;;8.77;100.00
44103;BME280;29769;42.178;24.742;2022-11-23T05:38:55;98333.09;;;8.86;100.00
44103;BME280;29769;42.178;24.742;2022-11-23T05:41:47;98332.94;;;8.90;100.00
44103;BME280;29769;42.178;24.742;2022-11-23T05:44:46;98336.22;;;8.99;100.00
44103;BME280;29769;42.178;24.742;2022-11-23T05:47:38;98326.72;;;8.95;100.00
44103;BME280;29769;42.178;24.742;2022-11-23T05:50:27;98329.81;;;9.07;100.00
44103;BME280;29769;42.178;24.742;2022-11-23T05:53:32;98317.72;;;9.03;100.00
44103;BME280;29769;42.178;24.742;2022-11-23T05:56:24;98334.09;;;9.10;100.00
44103;BME280;29769;42.178;24.742;2022-11-23T05:59:20;98330.69;;;9.08;100.00
44103;BME280;29769;42.178;24.742;2022-11-23T06:02:10;98316.75;;;9.06;100.00
44103;BME280;29769;42.178;24.742;2022-11-23T06:04:55;98298.81;;;9.20;100.00
44103;BME280;29769;42.178;24.742;2022-11-23T06:07:51;98295.75;;;9.33;100.00
44103;BME280;29769;42.178;24.742;2022-11-23T06:10:39;98310.53;;;9.36;100.00
44103;BME280;29769;42.178;24.742;2022-11-23T06:13:24;98312.22;;;9.38;100.00
44103;BME280;29769;42.178;24.742;2022-11-23T06:16:09;98312.03;;;9.45;100.00
44103;BME280;29769;42.178;24.742;2022-11-23T06:19:04;98309.03;;;9.55;100.00
44103;BME280;29769;42.178;24.742;2022-11-23T06:21:49;98306.25;;;9.60;100.00
44103;BME280;29769;42.178;24.742;2022-11-23T06:24:35;98314.88;;;9.63;100.00
44103;BME280;29769;42.178;24.742;2022-11-23T06:27:39;98318.19;;;9.68;100.00
44103;BME280;29769;42.178;24.742;2022-11-23T06:30:32;98317.19;;;9.72;100.00
44103;BME280;29769;42.178;24.742;2022-11-23T06:33:22;98319.06;;;9.69;100.00
44103;BME280;29769;42.178;24.742;2022-11-23T06:36:10;98332.94;;;9.72;100.00
44103;BME280;29769;42.178;24.742;2022-11-23T06:39:01;98340.78;;;9.74;100.00
44103;BME280;29769;42.178;24.742;2022-11-23T06:41:47;98342.38;;;9.78;100.00
44103;BME280;29769;42.178;24.742;2022-11-23T06:44:32;98348.50;;;9.78;100.00
44103;BME280;29769;42.178;24.742;2022-11-23T06:47:17;98358.84;;;9.83;100.00
44103;BME280;29769;42.178;24.742;2022-11-23T06:50:02;98351.84;;;9.83;100.00
44103;BME280;29769;42.178;24.742;2022-11-23T06:52:53;98355.28;;;9.86;100.00
44103;BME280;29769;42.178;24.742;2022-11-23T06:55:39;98344.66;;;9.89;100.00
44103;BME280;29769;42.178;24.742;2022-11-23T06:58:26;98351.38;;;9.97;100.00
44103;BME280;29769;42.178;24.742;2022-11-23T07:01:11;98342.19;;;10.09;100.00
44103;BME280;29769;42.178;24.742;2022-11-23T07:04:10;98346.47;;;10.13;100.00
44103;BME280;29769;42.178;24.742;2022-11-23T07:07:02;98353.81;;;10.28;100.00
44103;BME280;29769;42.178;24.742;2022-11-23T07:09:56;98350.53;;;10.46;100.00
44103;BME280;29769;42.178;24.742;2022-11-23T07:12:46;98347.75;;;10.51;100.00
44103;BME280;29769;42.178;24.742;2022-11-23T07:15:33;98350.75;;;10.40;100.00
44103;BME280;29769;42.178;24.742;2022-11-23T07:18:19;98351.69;;;10.39;100.00
44103;BME280;29769;42.178;24.742;2022-11-23T07:21:10;98359.41;;;10.44;100.00
44103;BME280;29769;42.178;24.742;2022-11-23T07:23:54;98363.31;;;10.57;100.00
44103;BME280;29769;42.178;24.742;2022-11-23T07:26:39;98362.59;;;10.52;100.00
44103;BME280;29769;42.178;24.742;2022-11-23T07:29:24;98366.31;;;10.46;100.00
44103;BME280;29769;42.178;24.742;2022-11-23T07:32:09;98368.78;;;10.51;100.00
44103;BME280;29769;42.178;24.742;2022-11-23T07:34:54;98373.16;;;10.50;100.00
44103;BME280;29769;42.178;24.742;2022-11-23T07:37:39;98367.88;;;10.52;100.00
44103;BME280;29769;42.178;24.742;2022-11-23T07:40:24;98374.72;;;10.56;100.00
44103;BME280;29769;42.178;24.742;2022-11-23T07:43:10;98381.53;;;10.61;100.00
44103;BME280;29769;42.178;24.742;2022-11-23T07:45:55;98388.19;;;10.72;100.00
44103;BME280;29769;42.178;24.742;2022-11-23T07:48:41;98394.03;;;10.80;100.00
44103;BME280;29769;42.178;24.742;2022-11-23T07:51:26;98384.78;;;10.68;100.00
44103;BME280;29769;42.178;24.742;2022-11-23T07:54:10;98381.94;;;10.74;100.00
44103;BME280;29769;42.178;24.742;2022-11-23T07:56:55;98382.59;;;10.81;100.00
44103;BME280;29769;42.178;24.742;2022-11-23T07:59:40;98387.78;;;10.82;100.00
44103;BME280;29769;42.178;24.742;2022-11-23T08:02:25;98394.25;;;10.97;100.00
44103;BME280;29769;42.178;24.742;2022-11-23T08:05:10;98394.47;;;11.14;100.00
44103;BME280;29769;42.178;24.742;2022-11-23T08:07:58;98387.63;;;11.32;100.00
44103;BME280;29769;42.178;24.742;2022-11-23T08:10:43;98394.38;;;11.39;100.00
44103;BME280;29769;42.178;24.742;2022-11-23T08:13:28;98399.56;;;11.40;100.00
44103;BME280;29769;42.178;24.742;2022-11-23T08:16:13;98405.16;;;11.54;100.00
44103;BME280;29769;42.178;24.742;2022-11-23T08:18:58;98401.47;;;11.58;100.00
44103;BME280;29769;42.178;24.742;2022-11-23T08:21:44;98399.47;;;11.65;100.00
44103;BME280;29769;42.178;24.742;2022-11-23T08:24:28;98407.19;;;11.70;100.00
44103;BME280;29769;42.178;24.742;2022-11-23T08:27:14;98398.81;;;11.60;100.00
44103;BME280;29769;42.178;24.742;2022-11-23T08:29:59;98414.56;;;11.62;100.00
44103;BME280;29769;42.178;24.742;2022-11-23T08:32:44;98412.03;;;11.58;100.00
44103;BME280;29769;42.178;24.742;2022-11-23T08:35:28;98404.47;;;11.49;100.00
44103;BME280;29769;42.178;24.742;2022-11-23T08:38:13;98395.75;;;11.49;100.00
44103;BME280;29769;42.178;24.742;2022-11-23T08:41:02;98404.97;;;11.59;100.00
44103;BME280;29769;42.178;24.742;2022-11-23T08:43:49;98397.66;;;11.67;100.00
44103;BME280;29769;42.178;24.742;2022-11-23T08:46:35;98395.13;;;11.64;100.00
44103;BME280;29769;42.178;24.742;2022-11-23T08:49:19;98381.22;;;11.60;100.00
44103;BME280;29769;42.178;24.742;2022-11-23T08:52:04;98380.84;;;11.70;100.00
44103;BME280;29769;42.178;24.742;2022-11-23T08:54:49;98376.81;;;11.83;100.00
44103;BME280;29769;42.178;24.742;2022-11-23T08:57:34;98386.59;;;11.81;100.00
44103;BME280;29769;42.178;24.742;2022-11-23T09:00:19;98368.59;;;11.90;100.00
44103;BME280;29769;42.178;24.742;2022-11-23T09:03:04;98372.28;;;11.86;100.00
44103;BME280;29769;42.178;24.742;2022-11-23T09:05:49;98369.06;;;12.00;100.00
44103;BME280;29769;42.178;24.742;2022-11-23T09:08:34;98353.94;;;12.05;100.00
44103;BME280;29769;42.178;24.742;2022-11-23T09:11:20;98339.19;;;12.21;100.00
44103;BME280;29769;42.178;24.742;2022-11-23T09:14:04;98348.78;;;12.22;100.00
44103;BME280;29769;42.178;24.742;2022-11-23T09:16:49;98347.47;;;12.32;100.00
44103;BME280;29769;42.178;24.742;2022-11-23T09:19:34;98335.28;;;12.30;100.00
44103;BME280;29769;42.178;24.742;2022-11-23T09:22:19;98353.00;;;12.46;100.00
44103;BME280;29769;42.178;24.742;2022-11-23T09:25:04;98347.81;;;12.64;100.00
44103;BME280;29769;42.178;24.742;2022-11-23T09:27:58;98340.66;;;12.86;100.00
44103;BME280;29769;42.178;24.742;2022-11-23T09:30:43;98334.06;;;13.15;100.00
44103;BME280;29769;42.178;24.742;2022-11-23T09:33:27;98325.81;;;13.75;100.00
44103;BME280;29769;42.178;24.742;2022-11-23T09:36:12;98325.75;;;14.11;100.00
44103;BME280;29769;42.178;24.742;2022-11-23T09:38:57;98306.03;;;14.84;100.00
44103;BME280;29769;42.178;24.742;2022-11-23T09:45:15;98304.69;;;15.71;100.00
44103;BME280;29769;42.178;24.742;2022-11-23T09:51:00;98290.34;;;16.03;100.00
44103;BME280;29769;42.178;24.742;2022-11-23T09:54:03;98297.59;;;16.74;100.00
44103;BME280;29769;42.178;24.742;2022-11-23T09:56:51;98302.69;;;17.46;100.00
44103;BME280;29769;42.178;24.742;2022-11-23T09:59:42;98294.69;;;17.60;100.00
44103;BME280;29769;42.178;24.742;2022-11-23T10:02:34;98305.41;;;17.86;100.00
44103;BME280;29769;42.178;24.742;2022-11-23T10:05:22;98294.56;;;17.89;100.00
44103;BME280;29769;42.178;24.742;2022-11-23T10:08:18;98299.56;;;17.81;100.00
44103;BME280;29769;42.178;24.742;2022-11-23T10:11:34;98290.88;;;17.64;100.00
44103;BME280;29769;42.178;24.742;2022-11-23T10:14:52;98279.84;;;17.56;100.00
44103;BME280;29769;42.178;24.742;2022-11-23T10:21:22;98271.56;;;16.51;100.00
44103;BME280;29769;42.178;24.742;2022-11-23T10:24:16;98267.47;;;16.31;100.00
44103;BME280;29769;42.178;24.742;2022-11-23T10:27:12;98269.72;;;16.67;100.00
44103;BME280;29769;42.178;24.742;2022-11-23T10:29:59;98280.59;;;16.76;100.00
44103;BME280;29769;42.178;24.742;2022-11-23T10:35:46;98304.94;;;16.55;100.00
44103;BME280;29769;42.178;24.742;2022-11-23T10:38:31;98288.84;;;16.43;100.00
44103;BME280;29769;42.178;24.742;2022-11-23T10:41:16;98282.81;;;16.12;100.00
44103;BME280;29769;42.178;24.742;2022-11-23T10:46:52;98281.25;;;15.32;100.00
44103;BME280;29769;42.178;24.742;2022-11-23T10:49:37;98296.50;;;14.64;100.00
44103;BME280;29769;42.178;24.742;2022-11-23T10:52:27;98276.75;;;14.87;100.00
44103;BME280;29769;42.178;24.742;2022-11-23T10:55:13;98278.13;;;15.26;100.00
44103;BME280;29769;42.178;24.742;2022-11-23T10:58:00;98280.84;;;15.40;100.00
44103;BME280;29769;42.178;24.742;2022-11-23T11:00:44;98285.00;;;15.60;100.00
44103;BME280;29769;42.178;24.742;2022-11-23T11:03:30;98282.03;;;15.19;100.00
44103;BME280;29769;42.178;24.742;2022-11-23T11:06:27;98289.91;;;14.89;100.00
44103;BME280;29769;42.178;24.742;2022-11-23T11:09:18;98286.19;;;14.60;100.00
44103;BME280;29769;42.178;24.742;2022-11-23T11:12:04;98282.78;;;14.74;100.00
44103;BME280;29769;42.178;24.742;2022-11-23T11:17:57;98273.75;;;15.25;100.00
44103;BME280;29769;42.178;24.742;2022-11-23T11:20:44;98270.34;;;15.07;100.00
44103;BME280;29769;42.178;24.742;2022-11-23T11:23:29;98273.75;;;14.93;100.00
44103;BME280;29769;42.178;24.742;2022-11-23T11:26:20;98252.91;;;15.19;100.00
44103;BME280;29769;42.178;24.742;2022-11-23T11:29:06;98252.53;;;16.30;100.00
44103;BME280;29769;42.178;24.742;2022-11-23T11:31:59;98240.22;;;18.05;100.00
44103;BME280;29769;42.178;24.742;2022-11-23T11:34:51;98252.19;;;18.99;97.68
44103;BME280;29769;42.178;24.742;2022-11-23T11:37:45;98260.88;;;18.78;90.98
44103;BME280;29769;42.178;24.742;2022-11-23T11:40:40;98247.19;;;19.07;87.14
44103;BME280;29769;42.178;24.742;2022-11-23T11:43:41;98244.84;;;19.39;84.47
44103;BME280;29769;42.178;24.742;2022-11-23T11:46:35;98245.91;;;19.00;86.36
44103;BME280;29769;42.178;24.742;2022-11-23T11:49:31;98249.56;;;19.23;85.16
44103;BME280;29769;42.178;24.742;2022-11-23T11:52:20;98252.91;;;19.85;81.38
44103;BME280;29769;42.178;24.742;2022-11-23T11:55:25;98262.94;;;20.40;77.71
44103;BME280;29769;42.178;24.742;2022-11-23T11:58:14;98266.81;;;20.02;79.38
44103;BME280;29769;42.178;24.742;2022-11-23T12:01:08;98262.88;;;19.60;80.58
44103;BME280;29769;42.178;24.742;2022-11-23T12:04:04;98275.25;;;19.84;81.88
44103;BME280;29769;42.178;24.742;2022-11-23T12:09:46;98235.84;;;23.59;63.50
44103;BME280;29769;42.178;24.742;2022-11-23T12:12:34;98236.00;;;24.71;56.92
44103;BME280;29769;42.178;24.742;2022-11-23T12:15:23;98248.38;;;25.56;52.48
44103;BME280;29769;42.178;24.742;2022-11-23T12:21:52;98233.13;;;26.87;43.83
44103;BME280;29769;42.178;24.742;2022-11-23T12:25:15;98238.59;;;26.08;45.47
44103;BME280;29769;42.178;24.742;2022-11-23T12:31:39;98254.66;;;24.26;48.82
44103;BME280;29769;42.178;24.742;2022-11-23T12:37:34;98256.41;;;23.30;52.15
44103;BME280;29769;42.178;24.742;2022-11-23T12:43:27;98263.13;;;23.55;51.08
44103;BME280;29769;42.178;24.742;2022-11-23T12:46:41;98265.88;;;24.68;49.14
44103;BME280;29769;42.178;24.742;2022-11-23T12:49:43;98261.44;;;24.96;45.53
44103;BME280;29769;42.178;24.742;2022-11-23T12:58:49;98257.59;;;22.46;53.48
44103;BME280;29769;42.178;24.742;2022-11-23T13:01:39;98265.56;;;21.52;55.08
44103;BME280;29769;42.178;24.742;2022-11-23T13:08:14;98275.69;;;21.04;56.93
44103;BME280;29769;42.178;24.742;2022-11-23T13:23:47;98256.84;;;18.72;67.12
44103;BME280;29769;42.178;24.742;2022-11-23T13:26:32;98286.66;;;19.26;66.90
44103;BME280;29769;42.178;24.742;2022-11-23T13:40:59;98286.97;;;21.52;57.84
44103;BME280;29769;42.178;24.742;2022-11-23T13:43:45;98284.91;;;21.98;55.27
44103;BME280;29769;42.178;24.742;2022-11-23T13:46:35;98284.50;;;22.44;54.05
44103;BME280;29769;42.178;24.742;2022-11-23T13:52:27;98277.25;;;22.35;53.63
44103;BME280;29769;42.178;24.742;2022-11-23T14:01:06;98286.81;;;22.28;54.69
44103;BME280;29769;42.178;24.742;2022-11-23T14:03:53;98289.25;;;22.82;52.67
44103;BME280;29769;42.178;24.742;2022-11-23T14:06:57;98290.31;;;22.08;53.54
44103;BME280;29769;42.178;24.742;2022-11-23T14:09:53;98293.06;;;22.17;54.08
44103;BME280;29769;42.178;24.742;2022-11-23T14:15:33;98285.94;;;22.69;52.59
44103;BME280;29769;42.178;24.742;2022-11-23T14:18:48;98277.28;;;22.86;52.23
44103;BME280;29769;42.178;24.742;2022-11-23T14:34:00;98325.75;;;16.90;78.54
44103;BME280;29769;42.178;24.742;2022-11-23T14:43:11;98343.66;;;15.06;100.00
44103;BME280;29769;42.178;24.742;2022-11-23T14:46:02;98347.41;;;14.69;100.00
44103;BME280;29769;42.178;24.742;2022-11-23T14:48:48;98345.19;;;14.62;100.00
44103;BME280;29769;42.178;24.742;2022-11-23T14:51:33;98325.81;;;14.77;100.00
44103;BME280;29769;42.178;24.742;2022-11-23T14:54:19;98325.38;;;14.69;100.00
44103;BME280;29769;42.178;24.742;2022-11-23T14:57:05;98330.22;;;14.61;100.00
44103;BME280;29769;42.178;24.742;2022-11-23T14:59:56;98304.66;;;14.27;100.00
44103;BME280;29769;42.178;24.742;2022-11-23T15:02:42;98320.72;;;14.07;100.00
44103;BME280;29769;42.178;24.742;2022-11-23T15:05:31;98324.50;;;14.01;100.00
44103;BME280;29769;42.178;24.742;2022-11-23T15:11:09;98323.09;;;13.77;100.00
44103;BME280;29769;42.178;24.742;2022-11-23T15:13:56;98323.31;;;13.72;100.00
44103;BME280;29769;42.178;24.742;2022-11-23T15:16:46;98331.41;;;13.69;100.00
44103;BME280;29769;42.178;24.742;2022-11-23T15:19:32;98329.78;;;13.67;100.00
44103;BME280;29769;42.178;24.742;2022-11-23T15:22:17;98339.56;;;13.65;100.00
44103;BME280;29769;42.178;24.742;2022-11-23T15:25:05;98334.03;;;13.69;100.00
44103;BME280;29769;42.178;24.742;2022-11-23T15:27:54;98312.75;;;13.36;100.00
44103;BME280;29769;42.178;24.742;2022-11-23T15:30:39;98325.09;;;13.36;100.00
44103;BME280;29769;42.178;24.742;2022-11-23T15:33:24;98328.53;;;13.38;100.00
44103;BME280;29769;42.178;24.742;2022-11-23T15:36:10;98334.06;;;13.33;100.00
44103;BME280;29769;42.178;24.742;2022-11-23T15:38:56;98338.97;;;13.22;100.00
44103;BME280;29769;42.178;24.742;2022-11-23T15:41:41;98334.53;;;12.85;100.00
44103;BME280;29769;42.178;24.742;2022-11-23T15:44:30;98340.94;;;12.80;100.00
44103;BME280;29769;42.178;24.742;2022-11-23T15:47:25;98348.94;;;12.78;100.00
44103;BME280;29769;42.178;24.742;2022-11-23T15:50:12;98333.47;;;12.89;100.00
44103;BME280;29769;42.178;24.742;2022-11-23T15:53:00;98344.25;;;12.85;100.00
44103;BME280;29769;42.178;24.742;2022-11-23T15:55:46;98352.03;;;12.68;100.00
44103;BME280;29769;42.178;24.742;2022-11-23T15:58:32;98360.81;;;12.68;100.00
44103;BME280;29769;42.178;24.742;2022-11-23T16:01:17;98360.97;;;12.65;100.00
44103;BME280;29769;42.178;24.742;2022-11-23T16:04:02;98359.75;;;12.54;100.00
44103;BME280;29769;42.178;24.742;2022-11-23T16:06:48;98353.72;;;12.50;100.00
44103;BME280;29769;42.178;24.742;2022-11-23T16:09:37;98363.00;;;12.59;100.00
44103;BME280;29769;42.178;24.742;2022-11-23T16:18:23;98363.94;;;12.37;100.00
44103;BME280;29769;42.178;24.742;2022-11-23T16:21:13;98380.88;;;12.32;100.00
44103;BME280;29769;42.178;24.742;2022-11-23T16:23:59;98387.94;;;12.31;100.00
44103;BME280;29769;42.178;24.742;2022-11-23T16:26:44;98396.38;;;12.19;100.00
44103;BME280;29769;42.178;24.742;2022-11-23T16:29:35;98384.00;;;12.21;100.00
44103;BME280;29769;42.178;24.742;2022-11-23T16:32:22;98389.13;;;12.24;100.00
44103;BME280;29769;42.178;24.742;2022-11-23T16:35:16;98397.25;;;12.20;100.00